sensor_id;sensor_type;location;lat;lon;timestamp;pressure;altitude;pressure_sealevel;temperature;humidity
78014;BME280;67222;50.182;8.734;2023-11-19T06:32:09;100114.44;;;9.23;100.00
78014;BME280;67222;50.182;8.734;2023-11-19T06:34:34;100120.38;;;9.25;100.00
78014;BME280;67222;50.182;8.734;2023-11-19T06:37:00;100115.88;;;9.25;100.00
78014;BME280;67222;50.182;8.734;2023-11-19T06:39:25;100112.41;;;9.25;100.00
78014;BME280;67222;50.182;8.734;2023-11-19T06:41:52;100100.31;;;9.29;100.00
78014;BME280;67222;50.182;8.734;2023-11-19T06:44:17;100104.84;;;9.28;100.00
78014;BME280;67222;50.182;8.734;2023-11-19T06:46:43;100104.66;;;9.30;100.00
78014;BME280;67222;50.182;8.734;2023-11-19T06:49:08;100111.00;;;9.35;100.00
78014;BME280;67222;50.182;8.734;2023-11-19T06:51:34;100100.75;;;9.32;100.00
78014;BME280;67222;50.182;8.734;2023-11-19T06:53:59;100119.59;;;9.37;100.00
78014;BME280;67222;50.182;8.734;2023-11-19T06:56:24;100117.53;;;9.33;100.00
78014;BME280;67222;50.182;8.734;2023-11-19T06:58:51;100130.03;;;9.32;100.00
78014;BME280;67222;50.182;8.734;2023-11-19T07:01:17;100126.75;;;9.37;100.00
78014;BME280;67222;50.182;8.734;2023-11-19T07:03:44;100121.63;;;9.42;100.00
78014;BME280;67222;50.182;8.734;2023-11-19T07:06:10;100124.72;;;9.39;100.00
78014;BME280;67222;50.182;8.734;2023-11-19T07:08:35;100124.31;;;9.35;100.00
78014;BME280;67222;50.182;8.734;2023-11-19T07:11:01;100124.91;;;9.44;100.00
78014;BME280;67222;50.182;8.734;2023-11-19T07:13:27;100115.50;;;9.48;100.00
78014;BME280;67222;50.182;8.734;2023-11-19T07:15:53;100125.53;;;9.53;100.00
78014;BME280;67222;50.182;8.734;2023-11-19T07:18:19;100122.47;;;9.56;100.00
78014;BME280;67222;50.182;8.734;2023-11-19T07:20:47;100114.69;;;9.61;100.00
78014;BME280;67222;50.182;8.734;2023-11-19T07:23:12;100122.47;;;9.62;100.00
78014;BME280;67222;50.182;8.734;2023-11-19T07:25:39;100119.38;;;9.65;100.00
78014;BME280;67222;50.182;8.734;2023-11-19T07:28:05;100115.53;;;9.68;100.00
78014;BME280;67222;50.182;8.734;2023-11-19T07:30:30;100109.56;;;9.66;100.00
78014;BME280;67222;50.182;8.734;2023-11-19T07:32:55;100127.19;;;9.67;100.00
78014;BME280;67222;50.182;8.734;2023-11-19T07:35:20;100127.59;;;9.70;100.00
78014;BME280;67222;50.182;8.734;2023-11-19T07:37:46;100114.47;;;9.76;100.00
78014;BME280;67222;50.182;8.734;2023-11-19T07:40:13;100118.38;;;9.73;100.00
78014;BME280;67222;50.182;8.734;2023-11-19T07:42:38;100120.84;;;9.75;100.00
78014;BME280;67222;50.182;8.734;2023-11-19T07:45:04;100117.75;;;9.78;100.00
78014;BME280;67222;50.182;8.734;2023-11-19T07:47:30;100117.75;;;9.78;100.00
78014;BME280;67222;50.182;8.734;2023-11-19T07:49:56;100118.75;;;9.83;100.00
78014;BME280;67222;50.182;8.734;2023-11-19T07:52:21;100116.13;;;9.90;100.00
78014;BME280;67222;50.182;8.734;2023-11-19T07:54:46;100117.34;;;9.94;100.00
78014;BME280;67222;50.182;8.734;2023-11-19T07:57:11;100117.53;;;9.92;100.00
78014;BME280;67222;50.182;8.734;2023-11-19T07:59:37;100122.84;;;9.99;100.00
78014;BME280;67222;50.182;8.734;2023-11-19T08:02:02;100140.06;;;9.96;100.00
78014;BME280;67222;50.182;8.734;2023-11-19T08:04:28;100142.09;;;10.01;100.00
78014;BME280;67222;50.182;8.734;2023-11-19T08:06:53;100146.63;;;10.07;100.00
78014;BME280;67222;50.182;8.734;2023-11-19T08:09:19;100146.63;;;10.07;100.00
78014;BME280;67222;50.182;8.734;2023-11-19T08:11:44;100149.06;;;10.09;100.00
78014;BME280;67222;50.182;8.734;2023-11-19T08:14:09;100139.25;;;10.09;100.00
78014;BME280;67222;50.182;8.734;2023-11-19T08:16:35;100149.47;;;10.12;100.00
78014;BME280;67222;50.182;8.734;2023-11-19T08:19:02;100138.22;;;10.23;100.00
78014;BME280;67222;50.182;8.734;2023-11-19T08:21:28;100139.22;;;10.22;100.00
78014;BME280;67222;50.182;8.734;2023-11-19T08:23:53;100127.75;;;10.22;100.00
78014;BME280;67222;50.182;8.734;2023-11-19T08:26:19;100123.06;;;10.24;100.00
78014;BME280;67222;50.182;8.734;2023-11-19T08:28:44;100129.38;;;10.29;100.00
78014;BME280;67222;50.182;8.734;2023-11-19T08:31:09;100125.69;;;10.30;100.00
78014;BME280;67222;50.182;8.734;2023-11-19T08:33:34;100133.06;;;10.35;100.00
78014;BME280;67222;50.182;8.734;2023-11-19T08:36:00;100137.34;;;10.36;100.00
78014;BME280;67222;50.182;8.734;2023-11-19T08:38:26;100128.16;;;10.32;100.00
78014;BME280;67222;50.182;8.734;2023-11-19T08:40:51;100134.28;;;10.32;100.00
78014;BME280;67222;50.182;8.734;2023-11-19T08:43:17;100144.13;;;10.32;100.00
78014;BME280;67222;50.182;8.734;2023-11-19T08:45:42;100145.34;;;10.36;100.00
78014;BME280;67222;50.182;8.734;2023-11-19T08:48:07;100147.00;;;10.37;100.00
78014;BME280;67222;50.182;8.734;2023-11-19T08:50:33;100158.91;;;10.41;100.00
78014;BME280;67222;50.182;8.734;2023-11-19T08:52:58;100155.00;;;10.44;100.00
78014;BME280;67222;50.182;8.734;2023-11-19T08:55:24;100138.38;;;10.42;100.00
78014;BME280;67222;50.182;8.734;2023-11-19T08:57:49;100132.41;;;10.40;100.00
78014;BME280;67222;50.182;8.734;2023-11-19T09:00:14;100135.09;;;10.40;100.00
78014;BME280;67222;50.182;8.734;2023-11-19T09:02:40;100137.56;;;10.35;100.00
78014;BME280;67222;50.182;8.734;2023-11-19T09:05:06;100130.38;;;10.42;100.00
78014;BME280;67222;50.182;8.734;2023-11-19T09:07:33;100127.91;;;10.47;100.00
78014;BME280;67222;50.182;8.734;2023-11-19T09:09:58;100127.31;;;10.45;100.00
78014;BME280;67222;50.182;8.734;2023-11-19T09:12:24;100122.56;;;10.47;100.00
78014;BME280;67222;50.182;8.734;2023-11-19T09:14:49;100128.69;;;10.54;100.00
78014;BME280;67222;50.182;8.734;2023-11-19T09:17:15;100137.09;;;10.57;100.00
78014;BME280;67222;50.182;8.734;2023-11-19T09:19:41;100132.34;;;10.66;100.00
78014;BME280;67222;50.182;8.734;2023-11-19T09:22:06;100133.78;;;10.69;100.00
78014;BME280;67222;50.182;8.734;2023-11-19T09:24:31;100121.41;;;10.81;100.00
78014;BME280;67222;50.182;8.734;2023-11-19T09:26:57;100126.50;;;10.89;100.00
78014;BME280;67222;50.182;8.734;2023-11-19T09:29:22;100125.03;;;10.93;100.00
78014;BME280;67222;50.182;8.734;2023-11-19T09:31:49;100122.94;;;11.02;100.00
78014;BME280;67222;50.182;8.734;2023-11-19T09:34:14;100134.81;;;11.06;100.00
78014;BME280;67222;50.182;8.734;2023-11-19T09:36:39;100134.91;;;11.24;100.00
78014;BME280;67222;50.182;8.734;2023-11-19T09:39:09;100133.88;;;11.25;100.00
78014;BME280;67222;50.182;8.734;2023-11-19T09:41:34;100138.53;;;11.36;100.00
78014;BME280;67222;50.182;8.734;2023-11-19T09:44:00;100133.00;;;11.38;100.00
78014;BME280;67222;50.182;8.734;2023-11-19T09:46:26;100142.31;;;11.53;100.00
78014;BME280;67222;50.182;8.734;2023-11-19T09:48:53;100135.72;;;11.56;100.00
78014;BME280;67222;50.182;8.734;2023-11-19T09:51:21;100141.00;;;11.63;100.00
78014;BME280;67222;50.182;8.734;2023-11-19T09:53:47;100124.28;;;11.74;100.00
78014;BME280;67222;50.182;8.734;2023-11-19T09:56:13;100122.19;;;11.82;99.17
78014;BME280;67222;50.182;8.734;2023-11-19T09:58:39;100128.50;;;11.88;99.57
78014;BME280;67222;50.182;8.734;2023-11-19T10:01:05;100114.72;;;11.91;99.91
78014;BME280;67222;50.182;8.734;2023-11-19T10:03:37;100115.47;;;11.98;100.00
78014;BME280;67222;50.182;8.734;2023-11-19T10:06:08;100113.38;;;12.00;98.30
78014;BME280;67222;50.182;8.734;2023-11-19T10:08:36;100123.78;;;12.08;94.61
78014;BME280;67222;50.182;8.734;2023-11-19T10:11:02;100123.94;;;12.13;95.55
78014;BME280;67222;50.182;8.734;2023-11-19T10:13:28;100123.72;;;12.15;94.75
78014;BME280;67222;50.182;8.734;2023-11-19T10:15:55;100126.91;;;12.24;93.47
78014;BME280;67222;50.182;8.734;2023-11-19T10:18:27;100125.22;;;12.29;94.27
78014;BME280;67222;50.182;8.734;2023-11-19T10:20:53;100132.13;;;12.37;94.14
78014;BME280;67222;50.182;8.734;2023-11-19T10:23:18;100124.78;;;12.51;93.02
78014;BME280;67222;50.182;8.734;2023-11-19T10:25:44;100125.16;;;12.54;93.13
78014;BME280;67222;50.182;8.734;2023-11-19T10:28:10;100126.41;;;12.70;92.58
78014;BME280;67222;50.182;8.734;2023-11-19T10:30:35;100125.50;;;12.76;93.00
78014;BME280;67222;50.182;8.734;2023-11-19T10:33:10;100131.59;;;12.83;92.64
78014;BME280;67222;50.182;8.734;2023-11-19T10:35:58;100121.38;;;12.92;91.33
78014;BME280;67222;50.182;8.734;2023-11-19T10:38:24;100124.28;;;12.90;92.70
78014;BME280;67222;50.182;8.734;2023-11-19T10:40:51;100127.91;;;12.96;92.22
78014;BME280;67222;50.182;8.734;2023-11-19T10:43:17;100121.06;;;13.00;92.31
78014;BME280;67222;50.182;8.734;2023-11-19T10:45:42;100121.66;;;13.20;91.85
78014;BME280;67222;50.182;8.734;2023-11-19T10:48:08;100120.63;;;13.33;88.44
78014;BME280;67222;50.182;8.734;2023-11-19T10:50:33;100116.34;;;13.44;89.12
78014;BME280;67222;50.182;8.734;2023-11-19T10:53:00;100114.03;;;13.71;88.99
78014;BME280;67222;50.182;8.734;2023-11-19T10:55:32;100113.47;;;13.92;86.61
78014;BME280;67222;50.182;8.734;2023-11-19T10:58:03;100110.09;;;13.97;84.76
78014;BME280;67222;50.182;8.734;2023-11-19T11:00:44;100104.03;;;13.89;85.66
78014;BME280;67222;50.182;8.734;2023-11-19T11:03:16;100116.03;;;13.75;84.32
78014;BME280;67222;50.182;8.734;2023-11-19T11:05:42;100115.00;;;13.76;83.50
78014;BME280;67222;50.182;8.734;2023-11-19T11:08:07;100103.69;;;13.86;80.98
78014;BME280;67222;50.182;8.734;2023-11-19T11:10:39;100106.00;;;13.71;77.88
78014;BME280;67222;50.182;8.734;2023-11-19T11:13:05;100108.00;;;13.63;77.09
78014;BME280;67222;50.182;8.734;2023-11-19T11:15:31;100123.94;;;13.58;78.56
78014;BME280;67222;50.182;8.734;2023-11-19T11:18:01;100114.75;;;13.66;74.13
78014;BME280;67222;50.182;8.734;2023-11-19T11:20:32;100103.09;;;13.84;71.96
78014;BME280;67222;50.182;8.734;2023-11-19T11:23:31;100102.63;;;14.10;68.71
78014;BME280;67222;50.182;8.734;2023-11-19T11:26:15;100098.06;;;14.46;67.56
78014;BME280;67222;50.182;8.734;2023-11-19T11:28:58;100087.44;;;14.39;68.64
78014;BME280;67222;50.182;8.734;2023-11-19T11:31:31;100093.28;;;14.36;66.65
78014;BME280;67222;50.182;8.734;2023-11-19T11:34:09;100091.44;;;14.13;67.22
78014;BME280;67222;50.182;8.734;2023-11-19T11:36:49;100090.25;;;14.21;67.83
78014;BME280;67222;50.182;8.734;2023-11-19T11:39:21;100094.78;;;14.84;68.24
78014;BME280;67222;50.182;8.734;2023-11-19T11:41:47;100102.63;;;15.48;62.25
78014;BME280;67222;50.182;8.734;2023-11-19T11:44:12;100104.19;;;15.77;60.30
78014;BME280;67222;50.182;8.734;2023-11-19T11:49:04;100095.00;;;16.72;58.16
78014;BME280;67222;50.182;8.734;2023-11-19T11:54:11;100083.97;;;15.91;57.77
78014;BME280;67222;50.182;8.734;2023-11-19T11:57:10;100093.41;;;15.27;59.31
78014;BME280;67222;50.182;8.734;2023-11-19T12:02:08;100096.63;;;14.55;63.42
78014;BME280;67222;50.182;8.734;2023-11-19T12:04:35;100094.72;;;14.15;64.04
78014;BME280;67222;50.182;8.734;2023-11-19T12:07:08;100107.94;;;14.57;61.90
78014;BME280;67222;50.182;8.734;2023-11-19T12:09:40;100094.72;;;16.08;61.90
78014;BME280;67222;50.182;8.734;2023-11-19T12:12:19;100096.41;;;17.02;55.46
78014;BME280;67222;50.182;8.734;2023-11-19T12:17:47;100100.13;;;16.52;56.02
78014;BME280;67222;50.182;8.734;2023-11-19T12:20:21;100100.28;;;16.01;60.02
78014;BME280;67222;50.182;8.734;2023-11-19T12:22:47;100102.41;;;15.49;59.39
78014;BME280;67222;50.182;8.734;2023-11-19T12:25:15;100086.44;;;15.76;59.12
78014;BME280;67222;50.182;8.734;2023-11-19T12:27:44;100091.13;;;16.19;57.60
78014;BME280;67222;50.182;8.734;2023-11-19T12:30:10;100084.47;;;17.51;56.73
78014;BME280;67222;50.182;8.734;2023-11-19T12:32:43;100079.41;;;17.97;53.28
78014;BME280;67222;50.182;8.734;2023-11-19T12:35:09;100071.34;;;17.65;52.41
78014;BME280;67222;50.182;8.734;2023-11-19T12:37:45;100070.81;;;17.31;51.87
78014;BME280;67222;50.182;8.734;2023-11-19T12:42:43;100077.03;;;17.05;54.82
78014;BME280;67222;50.182;8.734;2023-11-19T12:45:09;100075.16;;;16.78;54.57
78014;BME280;67222;50.182;8.734;2023-11-19T12:47:42;100077.22;;;15.55;57.66
78014;BME280;67222;50.182;8.734;2023-11-19T12:50:08;100073.91;;;15.03;59.59
78014;BME280;67222;50.182;8.734;2023-11-19T12:52:35;100077.34;;;14.70;59.59
78014;BME280;67222;50.182;8.734;2023-11-19T12:55:01;100052.47;;;14.34;60.90
78014;BME280;67222;50.182;8.734;2023-11-19T12:57:37;100059.63;;;13.93;61.93
78014;BME280;67222;50.182;8.734;2023-11-19T13:00:03;100061.84;;;13.85;63.23
78014;BME280;67222;50.182;8.734;2023-11-19T13:02:48;100058.81;;;13.70;62.31
78014;BME280;67222;50.182;8.734;2023-11-19T13:05:23;100055.53;;;13.56;63.70
78014;BME280;67222;50.182;8.734;2023-11-19T13:07:49;100056.72;;;13.48;64.81
78014;BME280;67222;50.182;8.734;2023-11-19T13:10:14;100050.44;;;13.43;65.28
78014;BME280;67222;50.182;8.734;2023-11-19T13:12:40;100046.47;;;13.45;65.85
78014;BME280;67222;50.182;8.734;2023-11-19T13:15:06;100033.78;;;13.64;64.13
78014;BME280;67222;50.182;8.734;2023-11-19T13:17:31;100034.09;;;14.03;63.01
78014;BME280;67222;50.182;8.734;2023-11-19T13:19:56;100036.38;;;14.34;63.27
78014;BME280;67222;50.182;8.734;2023-11-19T13:22:22;100037.91;;;14.70;62.90
78014;BME280;67222;50.182;8.734;2023-11-19T13:24:47;100039.91;;;14.92;61.76
78014;BME280;67222;50.182;8.734;2023-11-19T13:27:13;100037.38;;;15.02;62.01
78014;BME280;67222;50.182;8.734;2023-11-19T13:29:39;100028.84;;;15.05;61.24
78014;BME280;67222;50.182;8.734;2023-11-19T13:32:04;100046.56;;;15.06;61.05
78014;BME280;67222;50.182;8.734;2023-11-19T13:34:30;100023.25;;;15.06;61.18
78014;BME280;67222;50.182;8.734;2023-11-19T13:36:56;100035.63;;;15.07;59.64
78014;BME280;67222;50.182;8.734;2023-11-19T13:39:21;100040.16;;;14.90;58.75
78014;BME280;67222;50.182;8.734;2023-11-19T13:41:48;100043.31;;;15.04;58.35
78014;BME280;67222;50.182;8.734;2023-11-19T13:44:15;100037.56;;;15.12;60.46
78014;BME280;67222;50.182;8.734;2023-11-19T13:46:40;100021.28;;;15.19;61.27
78014;BME280;67222;50.182;8.734;2023-11-19T13:49:06;100017.72;;;15.13;61.57
78014;BME280;67222;50.182;8.734;2023-11-19T13:51:31;100019.56;;;14.96;61.78
78014;BME280;67222;50.182;8.734;2023-11-19T13:53:56;100023.91;;;14.85;62.56
78014;BME280;67222;50.182;8.734;2023-11-19T13:56:22;100029.53;;;14.83;62.90
78014;BME280;67222;50.182;8.734;2023-11-19T13:58:47;100022.28;;;14.84;62.91
78014;BME280;67222;50.182;8.734;2023-11-19T14:01:12;100020.75;;;14.71;60.57
78014;BME280;67222;50.182;8.734;2023-11-19T14:03:37;100026.72;;;14.62;61.92
78014;BME280;67222;50.182;8.734;2023-11-19T14:06:03;100017.69;;;14.51;61.95
78014;BME280;67222;50.182;8.734;2023-11-19T14:08:28;100027.94;;;14.42;62.15
78014;BME280;67222;50.182;8.734;2023-11-19T14:10:54;100017.94;;;14.38;63.06
78014;BME280;67222;50.182;8.734;2023-11-19T14:13:22;100020.28;;;14.34;62.06
78014;BME280;67222;50.182;8.734;2023-11-19T14:15:49;100017.41;;;14.12;63.04
78014;BME280;67222;50.182;8.734;2023-11-19T14:18:14;100019.38;;;14.17;63.90
78014;BME280;67222;50.182;8.734;2023-11-19T14:20:40;100024.63;;;14.12;64.74
78014;BME280;67222;50.182;8.734;2023-11-19T14:23:05;100009.50;;;14.06;63.98
78014;BME280;67222;50.182;8.734;2023-11-19T14:25:30;100007.88;;;13.93;64.25
78014;BME280;67222;50.182;8.734;2023-11-19T14:27:56;100034.09;;;13.91;63.16
78014;BME280;67222;50.182;8.734;2023-11-19T14:30:21;100001.84;;;13.86;63.38
78014;BME280;67222;50.182;8.734;2023-11-19T14:32:46;99998.59;;;13.84;64.56
78014;BME280;67222;50.182;8.734;2023-11-19T14:35:13;100002.66;;;13.86;63.41
78014;BME280;67222;50.182;8.734;2023-11-19T14:37:39;99995.31;;;13.82;63.74
78014;BME280;67222;50.182;8.734;2023-11-19T14:40:04;99982.97;;;13.81;63.45
78014;BME280;67222;50.182;8.734;2023-11-19T14:42:31;99998.13;;;13.75;62.70
78014;BME280;67222;50.182;8.734;2023-11-19T14:44:56;99982.28;;;13.74;62.40
78014;BME280;67222;50.182;8.734;2023-11-19T14:47:21;99992.19;;;13.61;61.93
78014;BME280;67222;50.182;8.734;2023-11-19T14:49:47;100000.91;;;13.57;62.11
78014;BME280;67222;50.182;8.734;2023-11-19T14:52:13;100008.03;;;13.51;61.14
78014;BME280;67222;50.182;8.734;2023-11-19T14:54:39;100000.59;;;13.42;62.02
78014;BME280;67222;50.182;8.734;2023-11-19T14:57:05;100001.97;;;13.32;63.76
78014;BME280;67222;50.182;8.734;2023-11-19T14:59:32;100000.13;;;13.21;63.79
78014;BME280;67222;50.182;8.734;2023-11-19T15:01:58;100000.16;;;13.15;63.75
78014;BME280;67222;50.182;8.734;2023-11-19T15:04:25;100014.84;;;13.12;63.92
78014;BME280;67222;50.182;8.734;2023-11-19T15:06:50;100017.97;;;13.09;63.50
78014;BME280;67222;50.182;8.734;2023-11-19T15:09:15;100021.81;;;13.01;65.61
78014;BME280;67222;50.182;8.734;2023-11-19T15:11:42;100022.38;;;12.92;65.03
78014;BME280;67222;50.182;8.734;2023-11-19T15:14:07;100020.97;;;12.89;66.56
78014;BME280;67222;50.182;8.734;2023-11-19T15:16:33;100029.34;;;12.93;65.35
78014;BME280;67222;50.182;8.734;2023-11-19T15:19:00;100025.63;;;12.94;66.43
78014;BME280;67222;50.182;8.734;2023-11-19T15:21:26;100030.63;;;12.90;66.29
78014;BME280;67222;50.182;8.734;2023-11-19T15:23:52;100031.31;;;12.86;66.54
78014;BME280;67222;50.182;8.734;2023-11-19T15:26:17;100038.75;;;12.84;67.82
78014;BME280;67222;50.182;8.734;2023-11-19T15:28:44;100037.72;;;12.85;67.81
78014;BME280;67222;50.182;8.734;2023-11-19T15:31:09;100036.75;;;12.79;67.74
78014;BME280;67222;50.182;8.734;2023-11-19T15:33:35;100029.03;;;12.71;67.53
78014;BME280;67222;50.182;8.734;2023-11-19T15:36:00;100034.28;;;12.66;68.50
78014;BME280;67222;50.182;8.734;2023-11-19T15:38:27;100040.50;;;12.60;68.12
78014;BME280;67222;50.182;8.734;2023-11-19T15:40:52;100053.97;;;12.53;67.36
78014;BME280;67222;50.182;8.734;2023-11-19T15:43:18;100047.81;;;12.53;67.86
78014;BME280;67222;50.182;8.734;2023-11-19T15:45:44;100057.69;;;12.52;69.20
78014;BME280;67222;50.182;8.734;2023-11-19T15:48:09;100067.88;;;12.43;68.57
78014;BME280;67222;50.182;8.734;2023-11-19T15:50:38;100060.81;;;12.49;68.25
78014;BME280;67222;50.182;8.734;2023-11-19T15:53:04;100065.13;;;12.50;68.23
78014;BME280;67222;50.182;8.734;2023-11-19T15:55:30;100073.88;;;12.57;67.16
78014;BME280;67222;50.182;8.734;2023-11-19T15:57:55;100071.66;;;12.54;69.20
78014;BME280;67222;50.182;8.734;2023-11-19T16:00:21;100076.41;;;12.52;68.44
78014;BME280;67222;50.182;8.734;2023-11-19T16:02:47;100078.50;;;12.50;69.08
78014;BME280;67222;50.182;8.734;2023-11-19T16:05:12;100087.63;;;12.42;70.01
78014;BME280;67222;50.182;8.734;2023-11-19T16:07:37;100078.44;;;12.38;69.27
78014;BME280;67222;50.182;8.734;2023-11-19T16:10:03;100080.97;;;12.33;69.48
78014;BME280;67222;50.182;8.734;2023-11-19T16:12:29;100082.13;;;12.37;69.53
78014;BME280;67222;50.182;8.734;2023-11-19T16:14:55;100084.81;;;12.37;68.66
78014;BME280;67222;50.182;8.734;2023-11-19T16:17:20;100080.72;;;12.35;69.23
78014;BME280;67222;50.182;8.734;2023-11-19T16:19:45;100080.00;;;12.28;69.98
78014;BME280;67222;50.182;8.734;2023-11-19T16:22:11;100077.69;;;12.31;69.03
78014;BME280;67222;50.182;8.734;2023-11-19T16:24:36;100089.66;;;12.29;69.15
78014;BME280;67222;50.182;8.734;2023-11-19T16:27:03;100076.53;;;12.27;69.14
78014;BME280;67222;50.182;8.734;2023-11-19T16:29:28;100073.22;;;12.25;68.69
78014;BME280;67222;50.182;8.734;2023-11-19T16:31:53;100082.88;;;12.26;69.21
78014;BME280;67222;50.182;8.734;2023-11-19T16:34:18;100070.50;;;12.32;67.93
78014;BME280;67222;50.182;8.734;2023-11-19T16:36:44;100067.88;;;12.25;69.38
78014;BME280;67222;50.182;8.734;2023-11-19T16:39:09;100073.31;;;12.19;69.52
78014;BME280;67222;50.182;8.734;2023-11-19T16:41:37;100067.00;;;12.13;68.84
78014;BME280;67222;50.182;8.734;2023-11-19T16:44:03;100062.31;;;12.08;69.40
78014;BME280;67222;50.182;8.734;2023-11-19T16:46:29;100070.19;;;12.03;69.32
78014;BME280;67222;50.182;8.734;2023-11-19T16:48:56;100061.78;;;12.00;70.79
78014;BME280;67222;50.182;8.734;2023-11-19T16:51:21;100072.94;;;11.97;70.86
78014;BME280;67222;50.182;8.734;2023-11-19T16:53:47;100069.28;;;11.91;70.77
78014;BME280;67222;50.182;8.734;2023-11-19T16:56:13;100076.91;;;11.88;71.01
78014;BME280;67222;50.182;8.734;2023-11-19T16:58:39;100072.56;;;11.93;70.67
78014;BME280;67222;50.182;8.734;2023-11-19T17:01:07;100076.75;;;11.82;70.94
78014;BME280;67222;50.182;8.734;2023-11-19T17:03:33;100080.16;;;11.71;71.72
78014;BME280;67222;50.182;8.734;2023-11-19T17:06:00;100075.16;;;11.75;70.22
78014;BME280;67222;50.182;8.734;2023-11-19T17:08:26;100076.81;;;11.76;71.38
78014;BME280;67222;50.182;8.734;2023-11-19T17:10:51;100078.66;;;11.75;70.26
78014;BME280;67222;50.182;8.734;2023-11-19T17:13:17;100082.94;;;11.83;70.03
78014;BME280;67222;50.182;8.734;2023-11-19T17:15:46;100070.59;;;11.82;70.00
78014;BME280;67222;50.182;8.734;2023-11-19T17:18:12;100078.53;;;11.89;70.04
78014;BME280;67222;50.182;8.734;2023-11-19T17:20:37;100080.84;;;11.85;70.22
78014;BME280;67222;50.182;8.734;2023-11-19T17:23:04;100084.41;;;11.79;69.63
78014;BME280;67222;50.182;8.734;2023-11-19T17:25:30;100085.25;;;11.73;70.63
78014;BME280;67222;50.182;8.734;2023-11-19T17:27:55;100087.53;;;11.69;70.54
78014;BME280;67222;50.182;8.734;2023-11-19T17:30:21;100085.97;;;11.62;71.08
78014;BME280;67222;50.182;8.734;2023-11-19T17:32:47;100086.78;;;11.62;71.60
78014;BME280;67222;50.182;8.734;2023-11-19T17:35:13;100088.09;;;11.53;71.32
78014;BME280;67222;50.182;8.734;2023-11-19T17:37:39;100089.19;;;11.45;71.70
78014;BME280;67222;50.182;8.734;2023-11-19T17:40:05;100097.56;;;11.49;71.74
78014;BME280;67222;50.182;8.734;2023-11-19T17:42:31;100094.28;;;11.47;71.74
78014;BME280;67222;50.182;8.734;2023-11-19T17:44:57;100095.84;;;11.36;72.38
78014;BME280;67222;50.182;8.734;2023-11-19T17:47:23;100094.00;;;11.30;73.25
78014;BME280;67222;50.182;8.734;2023-11-19T17:49:49;100099.13;;;11.32;72.58
78014;BME280;67222;50.182;8.734;2023-11-19T17:52:14;100100.22;;;11.24;73.13
78014;BME280;67222;50.182;8.734;2023-11-19T17:54:39;100100.06;;;11.19;73.69
78014;BME280;67222;50.182;8.734;2023-11-19T17:57:05;100104.44;;;11.07;73.12
78014;BME280;67222;50.182;8.734;2023-11-19T17:59:30;100094.41;;;11.02;73.52
78014;BME280;67222;50.182;8.734;2023-11-19T18:01:56;100109.59;;;11.02;73.97
78014;BME280;67222;50.182;8.734;2023-11-19T18:04:26;100100.59;;;10.96;72.91
78014;BME280;67222;50.182;8.734;2023-11-19T18:06:52;100108.41;;;10.98;72.23
78014;BME280;67222;50.182;8.734;2023-11-19T18:09:18;100110.88;;;10.92;73.47
78014;BME280;67222;50.182;8.734;2023-11-19T18:11:44;100116.41;;;10.98;73.60
78014;BME280;67222;50.182;8.734;2023-11-19T18:14:11;100107.16;;;10.93;72.95
78014;BME280;67222;50.182;8.734;2023-11-19T18:16:36;100121.94;;;10.96;73.46
78014;BME280;67222;50.182;8.734;2023-11-19T18:19:01;100120.06;;;10.97;73.14
78014;BME280;67222;50.182;8.734;2023-11-19T18:21:28;100126.28;;;10.90;72.68
78014;BME280;67222;50.182;8.734;2023-11-19T18:23:54;100120.56;;;10.87;73.97
78014;BME280;67222;50.182;8.734;2023-11-19T18:26:19;100127.53;;;10.88;73.46
78014;BME280;67222;50.182;8.734;2023-11-19T18:28:44;100125.41;;;10.97;72.42
78014;BME280;67222;50.182;8.734;2023-11-19T18:31:12;100126.66;;;11.01;72.60
78014;BME280;67222;50.182;8.734;2023-11-19T18:33:37;100125.25;;;10.91;73.34
78014;BME280;67222;50.182;8.734;2023-11-19T18:36:03;100129.38;;;10.87;73.46
78014;BME280;67222;50.182;8.734;2023-11-19T18:38:29;100140.25;;;10.86;73.48
78014;BME280;67222;50.182;8.734;2023-11-19T18:40:54;100137.00;;;10.84;74.14
78014;BME280;67222;50.182;8.734;2023-11-19T18:43:20;100132.31;;;10.79;74.19
78014;BME280;67222;50.182;8.734;2023-11-19T18:45:45;100123.66;;;10.77;73.59
78014;BME280;67222;50.182;8.734;2023-11-19T18:48:10;100119.38;;;10.76;73.24
78014;BME280;67222;50.182;8.734;2023-11-19T18:50:36;100121.47;;;10.68;74.00
78014;BME280;67222;50.182;8.734;2023-11-19T18:53:01;100124.31;;;10.79;73.07
78014;BME280;67222;50.182;8.734;2023-11-19T18:55:27;100116.91;;;10.75;72.76
78014;BME280;67222;50.182;8.734;2023-11-19T18:57:54;100130.88;;;10.70;73.13
78014;BME280;67222;50.182;8.734;2023-11-19T19:00:19;100133.97;;;10.67;73.09
78014;BME280;67222;50.182;8.734;2023-11-19T19:02:45;100125.19;;;10.60;74.18
78014;BME280;67222;50.182;8.734;2023-11-19T19:05:13;100116.56;;;10.58;73.69
78014;BME280;67222;50.182;8.734;2023-11-19T19:07:42;100122.31;;;10.55;74.58
78014;BME280;67222;50.182;8.734;2023-11-19T19:10:07;100118.41;;;10.57;74.36
78014;BME280;67222;50.182;8.734;2023-11-19T19:12:33;100117.38;;;10.65;75.01
78014;BME280;67222;50.182;8.734;2023-11-19T19:15:00;100117.81;;;10.62;75.30
78014;BME280;67222;50.182;8.734;2023-11-19T19:17:25;100114.06;;;10.70;74.73
78014;BME280;67222;50.182;8.734;2023-11-19T19:19:51;100116.13;;;10.68;74.48
78014;BME280;67222;50.182;8.734;2023-11-19T19:22:16;100114.63;;;10.78;73.82
78014;BME280;67222;50.182;8.734;2023-11-19T19:24:41;100122.25;;;10.75;75.34
78014;BME280;67222;50.182;8.734;2023-11-19T19:27:06;100119.75;;;10.86;73.96
78014;BME280;67222;50.182;8.734;2023-11-19T19:29:32;100123.19;;;10.93;75.00